Time;durP1;ratioP1;P1;durP2;ratioP2;P2;SDS_P1;SDS_P2;PMS_P1;PMS_P2;Temp;Humidity;BMP_temperature;BMP_pressure;BME280_temperature;BME280_humidity;BME280_pressure;Samples;Min_cycle;Max_cycle;Signal;HPM_P1;HPM_P2
2022/06/27 00:00:35;;;;;;;8.00;5.75;;;;;;;18.89;65.34;99044.51;2211069;81;21048;-79
2022/06/27 00:03:36;;;;;;;6.53;5.87;;;;;;;18.81;65.27;99041.13;2210940;81;20988;-78
2022/06/27 00:06:36;;;;;;;7.12;5.58;;;;;;;18.77;65.80;99040.31;2210469;81;21023;-78
2022/06/27 00:09:37;;;;;;;6.00;5.50;;;;;;;18.74;66.20;99039.50;2210982;81;20964;-79
2022/06/27 00:12:37;;;;;;;8.40;5.33;;;;;;;18.68;66.38;99031.67;2211089;81;20953;-79
2022/06/27 00:15:37;;;;;;;6.42;5.70;;;;;;;18.60;66.69;99036.19;2210876;81;20956;-79
2022/06/27 00:18:38;;;;;;;8.95;6.10;;;;;;;18.53;66.80;99026.63;2211019;81;21328;-77
2022/06/27 00:21:38;;;;;;;6.90;5.22;;;;;;;18.53;66.95;99023.98;2211508;81;20948;-80
2022/06/27 00:24:39;;;;;;;8.70;5.53;;;;;;;18.54;66.92;99025.27;2211495;81;20956;-80
2022/06/27 00:27:39;;;;;;;8.55;5.95;;;;;;;18.58;67.71;99021.68;2211421;81;21386;-80
2022/06/27 00:30:40;;;;;;;16.87;6.10;;;;;;;18.66;67.51;99025.09;2211254;81;20961;-79
2022/06/27 00:33:40;;;;;;;9.00;5.53;;;;;;;18.71;67.30;99018.41;2211268;81;20878;-79
2022/06/27 00:36:40;;;;;;;6.12;5.45;;;;;;;18.78;67.15;99022.67;2211317;81;20996;-80
2022/06/27 00:39:41;;;;;;;11.63;5.35;;;;;;;18.82;66.92;99017.75;2210975;81;20968;-79
2022/06/27 00:42:42;;;;;;;6.58;5.30;;;;;;;18.85;67.20;99021.66;2211109;81;20984;-78
2022/06/27 00:45:42;;;;;;;5.97;5.47;;;;;;;18.88;66.94;99015.44;2211375;81;20932;-79
2022/06/27 00:48:42;;;;;;;6.25;5.53;;;;;;;18.88;66.84;99012.34;2211474;81;20870;-80
2022/06/27 00:51:42;;;;;;;5.72;5.22;;;;;;;18.89;66.71;99012.77;2211244;81;20964;-79
2022/06/27 00:54:43;;;;;;;7.00;5.40;;;;;;;18.87;66.81;99014.57;2211235;81;20937;-79
2022/06/27 00:57:43;;;;;;;5.62;5.12;;;;;;;18.82;66.71;99009.81;2211304;81;20976;-78
2022/06/27 01:00:44;;;;;;;5.58;4.95;;;;;;;18.77;66.94;99014.32;2211052;81;20964;-78
2022/06/27 01:03:44;;;;;;;5.70;5.10;;;;;;;18.69;67.15;99010.95;2211231;81;21384;-79
2022/06/27 01:06:45;;;;;;;7.08;5.20;;;;;;;18.63;67.25;99012.38;2215588;80;21015;-78
2022/06/27 01:09:45;;;;;;;5.90;5.40;;;;;;;18.57;67.40;99015.09;2221261;80;21014;-79
2022/06/27 01:12:45;;;;;;;5.42;4.90;;;;;;;18.53;67.53;99012.95;2221000;80;20901;-79
2022/06/27 01:15:46;;;;;;;7.28;5.12;;;;;;;18.53;67.91;99011.64;2221639;80;20947;-79
2022/06/27 01:18:46;;;;;;;6.12;4.60;;;;;;;18.52;67.72;99007.70;2221863;80;20976;-79
2022/06/27 01:21:47;;;;;;;8.78;5.55;;;;;;;18.56;67.87;99014.22;2221775;80;21278;-79
2022/06/27 01:24:47;;;;;;;5.60;5.10;;;;;;;18.60;67.66;99009.30;2221632;80;20908;-78
2022/06/27 01:27:47;;;;;;;5.33;4.92;;;;;;;18.66;67.69;99007.03;2221360;80;21295;-78
2022/06/27 01:30:48;;;;;;;5.10;4.67;;;;;;;18.71;67.46;99011.34;2221192;80;21439;-79
2022/06/27 01:33:48;;;;;;;6.75;5.00;;;;;;;18.74;67.45;99013.05;2221079;80;20919;-78
2022/06/27 01:36:49;;;;;;;5.60;5.10;;;;;;;18.72;67.02;99013.08;2221107;80;20999;-79
2022/06/27 01:39:49;;;;;;;7.60;5.20;;;;;;;18.73;67.03;99015.28;2221564;80;20972;-78
2022/06/27 01:42:49;;;;;;;8.28;5.50;;;;;;;18.70;67.24;99012.69;2221363;80;20983;-78
2022/06/27 01:45:50;;;;;;;6.35;4.85;;;;;;;18.64;67.29;99010.16;2221697;80;20900;-79
2022/06/27 01:48:50;;;;;;;6.75;5.33;;;;;;;18.63;67.31;99010.61;2221729;80;21015;-78
2022/06/27 01:51:51;;;;;;;5.75;4.78;;;;;;;18.62;67.23;99010.63;2221546;80;20988;-77
2022/06/27 01:54:51;;;;;;;8.80;4.97;;;;;;;18.60;67.38;99009.30;2221713;80;20957;-79
2022/06/27 01:57:52;;;;;;;5.40;4.53;;;;;;;18.59;67.33;99011.98;2221561;80;20989;-79
2022/06/27 02:00:52;;;;;;;6.78;4.75;;;;;;;18.58;67.38;99011.55;2221012;80;21313;-79
2022/06/27 02:03:52;;;;;;;168.78;22.70;;;;;;;18.54;67.46;99013.38;2221133;80;20980;-80
2022/06/27 02:06:53;;;;;;;106.37;17.23;;;;;;;18.50;67.59;99009.50;2221067;80;21035;-78
2022/06/27 02:09:53;;;;;;;12.70;6.47;;;;;;;18.45;67.91;99009.13;2221156;80;20944;-79
2022/06/27 02:12:54;;;;;;;13.50;5.37;;;;;;;18.40;68.06;99004.37;2221231;80;21320;-80
2022/06/27 02:15:54;;;;;;;5.55;5.05;;;;;;;18.31;68.04;99003.20;2221383;80;20984;-78
2022/06/27 02:18:54;;;;;;;162.97;14.10;;;;;;;18.18;68.39;99006.04;2221809;80;20959;-79
2022/06/27 02:21:55;;;;;;;17.00;8.13;;;;;;;18.10;68.92;99007.48;2221654;80;21059;-80
2022/06/27 02:24:55;;;;;;;37.78;29.25;;;;;;;18.05;68.98;99009.33;2222074;80;20949;-80
2022/06/27 02:27:56;;;;;;;8.33;7.60;;;;;;;18.02;69.02;99013.33;2221615;80;21008;-79
2022/06/27 02:30:56;;;;;;;10.43;5.70;;;;;;;17.97;69.39;99017.36;2220182;80;21462;-78
2022/06/27 02:33:56;;;;;;;6.17;5.10;;;;;;;17.95;69.44;99016.97;2220323;80;20936;-80
2022/06/27 02:36:57;;;;;;;11.97;5.42;;;;;;;17.93;69.81;99014.80;2220103;80;20952;-78
2022/06/27 02:39:57;;;;;;;9.88;5.03;;;;;;;17.90;70.03;99008.23;2220696;80;20932;-78
2022/06/27 02:42:58;;;;;;;8.73;5.20;;;;;;;17.87;69.92;99009.16;2221254;80;21024;-78
2022/06/27 02:46:01;;;;;;;7.08;5.17;;;;;;;17.91;70.25;99007.34;2221833;80;20928;-79
2022/06/27 02:49:01;;;;;;;5.92;4.85;;;;;;;17.96;70.06;99010.78;2210439;80;21023;-78
2022/06/27 02:52:01;;;;;;;9.50;5.22;;;;;;;17.90;70.24;99010.87;2211324;81;20893;-78
2022/06/27 02:55:02;;;;;;;10.40;4.70;;;;;;;17.89;70.31;99007.81;2212262;81;21234;-80
2022/06/27 02:58:02;;;;;;;5.67;4.97;;;;;;;17.89;70.63;99010.01;2211496;81;20983;-78
2022/06/27 03:01:03;;;;;;;5.85;5.20;;;;;;;17.88;70.59;99010.03;2211042;81;20912;-79
2022/06/27 03:04:03;;;;;;;5.65;5.00;;;;;;;17.91;70.72;99014.81;2211077;81;21004;-79
2022/06/27 03:07:03;;;;;;;8.45;5.65;;;;;;;17.96;70.67;99007.70;2211540;81;21418;-80
2022/06/27 03:10:04;;;;;;;8.38;5.37;;;;;;;17.98;70.66;99011.64;2210888;81;20916;-78
2022/06/27 03:13:04;;;;;;;8.65;5.40;;;;;;;18.02;70.79;99013.33;2211045;81;20944;-78
2022/06/27 03:16:07;;;;;;;7.30;5.37;;;;;;;18.06;70.67;99021.19;2199404;81;21001;-79
2022/06/27 03:19:10;;;;;;;5.83;5.30;;;;;;;18.10;70.95;99020.69;2192080;80;21007;-78
2022/06/27 03:22:10;;;;;;;6.00;5.27;;;;;;;18.07;70.78;99016.33;2208405;81;21350;-79
2022/06/27 03:25:10;;;;;;;6.35;5.15;;;;;;;18.10;70.84;99019.38;2210167;81;21073;-79
2022/06/27 03:28:11;;;;;;;6.03;5.28;;;;;;;18.14;70.66;99017.98;2211098;81;20948;-78
2022/06/27 03:31:11;;;;;;;5.40;5.00;;;;;;;18.31;70.50;99018.19;2210683;81;20948;-79
2022/06/27 03:34:12;;;;;;;8.93;5.62;;;;;;;18.36;70.27;99026.91;2210704;81;20957;-78
2022/06/27 03:37:12;;;;;;;5.03;4.55;;;;;;;18.40;70.39;99018.91;2209750;81;20976;-78
2022/06/27 03:40:12;;;;;;;12.15;4.92;;;;;;;18.52;70.34;99016.95;2210596;81;20983;-78
2022/06/27 03:43:13;;;;;;;7.50;5.03;;;;;;;18.58;70.21;99014.20;2210005;81;20960;-78
2022/06/27 03:46:13;;;;;;;20.15;5.83;;;;;;;18.64;70.03;99020.73;2208648;81;21347;-79
2022/06/27 03:52:32;;;;;;;15.80;5.75;;;;;;;18.84;69.82;99027.85;2208889;81;20948;-77
2022/06/27 03:55:34;;;;;;;8.08;5.08;;;;;;;18.94;69.61;99013.55;2209097;81;21309;-78
2022/06/27 03:58:33;;;;;;;37.75;7.65;;;;;;;19.05;69.45;99019.95;2209074;81;20984;-79
2022/06/27 04:01:34;;;;;;;10.35;5.15;;;;;;;19.19;69.26;99017.07;2209408;81;20944;-78
2022/06/27 04:04:34;;;;;;;7.55;4.85;;;;;;;19.40;69.07;99011.34;2208958;81;20956;-78
2022/06/27 04:07:34;;;;;;;5.75;5.10;;;;;;;19.61;68.74;99012.23;2209589;81;21043;-79
2022/06/27 04:10:35;;;;;;;8.10;4.90;;;;;;;19.84;68.25;99010.84;2210095;81;20948;-78
2022/06/27 04:13:35;;;;;;;6.33;4.55;;;;;;;20.12;67.81;99014.62;2209499;81;20960;-79
2022/06/27 04:16:36;;;;;;;6.72;4.47;;;;;;;20.39;67.08;99005.16;2209089;81;20936;-78
2022/06/27 04:19:36;;;;;;;105.70;13.00;;;;;;;20.70;66.55;99013.19;2208749;81;20920;-78
2022/06/27 04:22:36;;;;;;;7.35;4.83;;;;;;;21.05;65.64;99014.92;2209015;81;20928;-78
2022/06/27 04:25:37;;;;;;;5.60;4.40;;;;;;;21.42;65.08;99016.56;2209378;81;21396;-77
2022/06/27 04:28:37;;;;;;;6.67;4.75;;;;;;;21.73;63.62;99020.08;2209310;81;20965;-78
2022/06/27 04:31:38;;;;;;;7.25;4.80;;;;;;;21.90;62.91;99019.09;2209985;81;20996;-80
2022/06/27 04:34:38;;;;;;;8.28;4.83;;;;;;;22.12;62.29;99016.66;2209425;81;21321;-79
2022/06/27 04:37:43;;;;;;;6.80;4.22;;;;;;;22.33;61.31;99016.42;2209078;81;20988;-80
2022/06/27 04:40:42;;;;;;;8.35;4.78;;;;;;;22.45;60.03;99011.16;2208988;81;20957;-80
2022/06/27 04:43:42;;;;;;;6.45;4.58;;;;;;;22.61;60.05;99015.07;2209869;81;20989;-79
2022/06/27 04:46:43;;;;;;;6.40;4.60;;;;;;;22.85;59.67;99014.72;2209343;81;20941;-78
2022/06/27 04:49:43;;;;;;;5.67;4.03;;;;;;;23.12;59.07;99015.06;2207909;81;21595;-79
2022/06/27 04:52:43;;;;;;;20.85;5.33;;;;;;;23.28;58.48;99021.16;2207598;81;20966;-81
2022/06/27 04:55:44;;;;;;;14.23;10.72;;;;;;;23.49;58.04;99019.93;2207743;81;20929;-82
2022/06/27 04:58:44;;;;;;;8.48;4.70;;;;;;;23.63;56.94;99022.10;2208453;81;20944;-81
2022/06/27 05:01:45;;;;;;;8.23;4.70;;;;;;;23.81;56.85;99015.19;2208453;81;21427;-77
2022/06/27 05:04:45;;;;;;;7.03;4.47;;;;;;;23.97;56.43;99022.12;2207883;81;21012;-81
2022/06/27 05:07:45;;;;;;;51.92;9.05;;;;;;;24.11;55.44;99021.97;2207771;81;21055;-80
2022/06/27 05:10:46;;;;;;;6.58;4.35;;;;;;;24.20;55.47;99019.86;2208904;81;20944;-81
2022/06/27 05:13:46;;;;;;;9.23;4.28;;;;;;;24.30;55.07;99026.16;2209928;81;20985;-83
2022/06/27 05:16:47;;;;;;;6.05;4.25;;;;;;;24.51;54.01;99036.88;2209926;81;20948;-82
2022/06/27 05:19:47;;;;;;;6.62;4.70;;;;;;;24.60;54.19;99033.36;2208970;81;20948;-80
2022/06/27 05:22:47;;;;;;;44.33;5.97;;;;;;;24.83;54.08;99033.72;2208736;81;21081;-78
2022/06/27 05:25:48;;;;;;;13.62;5.10;;;;;;;25.04;53.13;99035.95;2209077;81;20952;-80
2022/06/27 05:28:48;;;;;;;8.20;5.05;;;;;;;25.15;52.52;99043.06;2208758;81;20932;-78
2022/06/27 05:31:49;;;;;;;5.58;4.10;;;;;;;25.22;52.62;99044.52;2208498;81;21363;-79
2022/06/27 05:34:49;;;;;;;8.60;4.45;;;;;;;25.34;51.78;99051.98;2208152;81;20900;-80
2022/06/27 05:37:50;;;;;;;22.45;5.40;;;;;;;25.45;51.73;99050.64;2208549;81;21016;-81
2022/06/27 05:40:50;;;;;;;6.58;4.22;;;;;;;25.52;51.82;99052.09;2208522;81;21347;-79
2022/06/27 05:43:50;;;;;;;7.28;4.40;;;;;;;25.63;51.23;99064.50;2208664;81;20956;-79
2022/06/27 05:46:51;;;;;;;7.45;4.25;;;;;;;25.66;50.90;99060.38;2208638;81;20897;-81
2022/06/27 05:49:51;;;;;;;4.65;4.25;;;;;;;25.61;51.10;99061.03;2209094;81;20968;-82
2022/06/27 05:52:52;;;;;;;7.45;4.92;;;;;;;25.60;50.31;99064.64;2208942;81;20976;-82
2022/06/27 05:55:52;;;;;;;9.45;5.67;;;;;;;25.69;50.82;99062.45;2208407;81;21313;-80
2022/06/27 05:58:55;;;;;;;9.70;4.87;;;;;;;25.81;50.70;99064.16;2208912;81;20932;-80
2022/06/27 06:01:53;;;;;;;10.68;5.40;;;;;;;26.04;50.49;99071.99;2209475;81;20960;-80
2022/06/27 06:04:53;;;;;;;13.50;5.37;;;;;;;26.22;50.53;99074.26;2209258;81;21411;-81
2022/06/27 06:07:53;;;;;;;13.62;5.55;;;;;;;26.32;49.88;99074.21;2209071;81;21471;-78
2022/06/27 06:10:54;;;;;;;46.20;8.28;;;;;;;26.32;49.38;99074.21;2209249;81;20913;-75
2022/06/27 06:13:54;;;;;;;5.67;4.80;;;;;;;26.31;49.67;99077.83;2209012;81;20964;-83
2022/06/27 06:16:55;;;;;;;13.95;5.53;;;;;;;26.26;48.64;99077.19;2208573;81;21462;-82
2022/06/27 06:19:55;;;;;;;6.65;4.85;;;;;;;26.13;49.81;99080.05;2208921;81;21376;-85
2022/06/27 06:22:56;;;;;;;5.50;4.45;;;;;;;26.31;49.55;99083.18;2209449;81;20967;-84
2022/06/27 06:25:56;;;;;;;11.50;4.60;;;;;;;26.43;49.46;99085.30;2209840;81;20956;-83
2022/06/27 06:28:58;;;;;;;5.87;4.20;;;;;;;26.51;49.25;99079.56;2209819;81;20960;-84
2022/06/27 06:31:57;;;;;;;8.05;4.30;;;;;;;26.66;48.67;99077.47;2208886;81;21726;-84
2022/06/27 06:35:00;;;;;;;5.50;4.28;;;;;;;26.83;48.43;99070.79;2209178;81;21008;-85
2022/06/27 06:38:01;;;;;;;;;;;;;;;26.96;47.63;99087.14;2211239;81;20976;-81
2022/06/27 06:41:01;;;;;;;96.22;11.10;;;;;;;27.09;47.24;99084.72;2208543;80;20096;-82
2022/06/27 06:44:02;;;;;;;5.95;4.05;;;;;;;27.21;47.28;99084.95;2208013;80;20964;-82
2022/06/27 06:47:02;;;;;;;14.63;5.00;;;;;;;27.26;46.30;99076.67;2208780;81;21269;-82
2022/06/27 06:50:02;;;;;;;6.08;3.98;;;;;;;27.40;46.75;99074.13;2208120;81;20924;-81
2022/06/27 06:53:04;;;;;;;7.15;4.30;;;;;;;27.58;46.01;99074.48;2209196;81;21350;-85
2022/06/27 06:56:04;;;;;;;6.40;4.15;;;;;;;27.65;46.06;99079.55;2209996;81;21031;-84
2022/06/27 06:59:03;;;;;;;10.95;4.50;;;;;;;27.83;45.87;99072.75;2209629;81;21015;-85
2022/06/27 07:02:04;;;;;;;6.90;4.40;;;;;;;28.02;45.63;99071.73;2209701;81;21039;-84
2022/06/27 07:05:08;;;;;;;13.05;5.28;;;;;;;28.20;45.01;99065.33;2209195;81;21011;-83
2022/06/27 07:08:05;;;;;;;10.20;4.42;;;;;;;28.39;45.00;99066.05;2209305;81;21063;-83
2022/06/27 07:11:06;;;;;;;6.58;5.97;;;;;;;28.64;44.18;99066.00;2209380;81;21762;-82
2022/06/27 07:14:05;;;;;;;5.95;4.20;;;;;;;28.58;44.21;99075.73;2208973;81;20938;-82
2022/06/27 07:17:07;;;;;;;7.75;4.67;;;;;;;28.65;44.13;99075.31;2208765;81;20995;-85
2022/06/27 07:20:06;;;;;;;5.22;3.83;;;;;;;28.86;43.96;99069.19;2187210;81;20993;-84
2022/06/27 07:23:09;;;;;;;6.17;3.92;;;;;;;29.00;42.91;99071.06;2208782;81;20972;-84
2022/06/27 07:26:09;;;;;;;4.15;3.30;;;;;;;29.26;43.39;99074.86;2209493;81;20948;-81
2022/06/27 07:29:08;;;;;;;5.62;3.75;;;;;;;29.57;41.95;99072.08;2209772;81;20941;-83
2022/06/27 07:32:08;;;;;;;12.58;4.75;;;;;;;29.39;41.03;99069.98;2209481;81;20956;-80
2022/06/27 07:35:11;;;;;;;8.40;4.10;;;;;;;29.22;41.18;99073.31;2209233;81;20940;-81
2022/06/27 07:38:12;;;;;;;5.70;3.62;;;;;;;29.32;41.50;99071.32;2208585;81;20968;-82
2022/06/27 07:41:13;;;;;;;4.03;3.37;;;;;;;29.44;40.05;99060.32;2209044;81;20937;-83
2022/06/27 07:44:12;;;;;;;6.87;4.62;;;;;;;29.52;40.49;99064.78;2209255;81;21075;-84
2022/06/27 07:47:13;;;;;;;11.35;4.95;;;;;;;29.56;40.29;99076.21;2208582;81;21379;-84
2022/06/27 07:53:35;;;;;;;9.30;3.92;;;;;;;29.76;40.11;99067.28;2209191;81;20999;-81
2022/06/27 07:56:34;;;;;;;7.62;3.98;;;;;;;30.06;39.72;99071.22;2209683;81;20937;-83
2022/06/27 07:59:34;;;;;;;8.13;3.50;;;;;;;30.13;38.72;99059.58;2209046;81;20992;-81
2022/06/27 08:02:33;;;;;;;16.50;4.78;;;;;;;30.18;38.29;99060.14;2209443;81;21007;-82
2022/06/27 08:05:34;;;;;;;7.53;3.22;;;;;;;30.13;37.90;99064.96;2209437;81;20944;-84
2022/06/27 08:08:36;;;;;;;4.58;3.05;;;;;;;30.13;38.11;99064.96;2202365;80;21076;-82
2022/06/27 08:11:35;;;;;;;6.53;3.35;;;;;;;30.20;37.81;99063.59;2197018;80;20961;-82
2022/06/27 08:14:36;;;;;;;4.72;3.20;;;;;;;30.28;37.88;99063.09;2196462;80;20897;-84
2022/06/27 08:17:36;;;;;;;25.80;4.95;;;;;;;30.46;38.30;99071.35;2196927;80;20933;-82
2022/06/27 08:20:37;;;;;;;3.92;3.50;;;;;;;30.57;36.81;99070.64;2196534;80;21320;-83
2022/06/27 08:23:37;;;;;;;7.25;3.60;;;;;;;30.41;37.42;99063.58;2195607;81;20948;-84
2022/06/27 08:26:38;;;;;;;8.48;5.37;;;;;;;30.29;36.85;99073.77;2196675;80;20952;-84
2022/06/27 08:29:41;;;;;;;29.90;5.33;;;;;;;30.24;37.39;99065.61;2196663;80;20898;-83
2022/06/27 08:32:42;;;;;;;49.38;6.65;;;;;;;30.35;36.40;99051.86;2196175;81;20921;-82
2022/06/27 08:35:47;;;;;;;5.03;2.95;;;;;;;30.43;36.42;99069.72;2196115;80;20989;-84
2022/06/27 08:38:42;;;;;;;5.80;3.10;;;;;;;30.60;36.62;99063.25;2195719;80;20981;-83
2022/06/27 08:41:43;;;;;;;6.60;3.33;;;;;;;30.73;36.08;99055.21;2196073;81;21316;-80
2022/06/27 08:44:44;;;;;;;5.95;2.95;;;;;;;30.72;36.33;99058.39;2195754;80;20960;-85
2022/06/27 08:47:44;;;;;;;5.95;3.10;;;;;;;30.81;36.51;99058.25;2195590;80;20980;-83
2022/06/27 08:50:45;;;;;;;11.10;3.77;;;;;;;31.04;36.08;99064.77;2196025;80;20980;-81
2022/06/27 08:53:44;;;;;;;21.02;3.90;;;;;;;31.17;36.67;99072.43;2196631;80;20965;-84
2022/06/27 08:56:45;;;;;;;4.87;4.03;;;;;;;31.29;35.68;99059.96;2196508;80;20952;-82
2022/06/27 08:59:46;;;;;;;3.87;3.20;;;;;;;31.27;35.82;99049.77;2195690;80;20956;-82
2022/06/27 09:02:46;;;;;;;4.42;2.90;;;;;;;31.11;35.25;99059.82;2195383;80;20925;-81
2022/06/27 09:05:49;;;;;;;4.05;2.80;;;;;;;31.12;35.54;99057.51;2195012;81;21152;-81
2022/06/27 09:08:48;;;;;;;4.67;3.00;;;;;;;31.37;35.05;99049.50;2195147;80;21003;-82
2022/06/27 09:11:49;;;;;;;3.40;2.60;;;;;;;31.51;35.80;99051.23;2195423;80;21592;-81
2022/06/27 09:14:49;;;;;;;11.20;2.85;;;;;;;31.78;34.74;99044.38;2196186;80;20953;-83
2022/06/27 09:17:49;;;;;;;8.98;3.22;;;;;;;32.00;33.84;99044.55;2195666;80;20969;-85
2022/06/27 09:20:50;;;;;;;2.92;2.55;;;;;;;32.08;33.58;99042.19;2195679;80;20948;-82
2022/06/27 09:23:53;;;;;;;9.45;4.10;;;;;;;32.05;33.04;99043.73;2194724;80;20963;-81
2022/06/27 09:26:53;;;;;;;7.95;2.77;;;;;;;32.07;33.51;99044.48;2194420;80;21007;-81
2022/06/27 09:29:53;;;;;;;6.00;2.80;;;;;;;31.98;33.19;99052.77;2194929;80;20945;-83
2022/06/27 09:32:54;;;;;;;6.22;2.80;;;;;;;32.00;33.26;99044.55;2194819;80;20968;-80
2022/06/27 09:35:54;;;;;;;5.25;2.72;;;;;;;32.12;33.50;99040.98;2195004;80;20948;-83
2022/06/27 09:38:55;;;;;;;6.17;3.45;;;;;;;32.13;33.34;99042.72;2195805;81;20984;-83
2022/06/27 09:41:58;;;;;;;6.12;2.65;;;;;;;32.13;33.80;99041.85;2196113;80;21356;-83
2022/06/27 09:44:59;;;;;;;5.37;2.77;;;;;;;32.32;33.34;99047.66;2196599;80;20941;-83
2022/06/27 09:47:56;;;;;;;5.55;3.25;;;;;;;32.26;33.42;99037.30;2195630;80;21035;-80
2022/06/27 09:50:57;;;;;;;4.47;3.17;;;;;;;32.47;32.93;99035.70;2195410;81;20964;-82
2022/06/27 09:54:00;;;;;;;7.35;3.47;;;;;;;32.65;32.94;99028.54;2195751;80;20972;-84
2022/06/27 09:57:00;;;;;;;3.20;2.87;;;;;;;32.75;32.56;99015.56;2196010;80;20955;-81
2022/06/27 10:00:00;;;;;;;12.23;3.55;;;;;;;32.92;32.78;99023.27;2195714;81;20953;-83
2022/06/27 10:03:01;;;;;;;4.35;2.83;;;;;;;32.98;33.09;99027.87;2196042;80;21314;-82
2022/06/27 10:06:01;;;;;;;5.67;2.90;;;;;;;32.92;32.42;99023.76;2195765;80;20953;-83
2022/06/27 10:09:02;;;;;;;14.13;3.72;;;;;;;32.99;32.80;99025.53;2196161;80;21027;-86
2022/06/27 10:12:02;;;;;;;10.95;3.52;;;;;;;33.08;32.14;99021.62;2196654;81;20957;-82
2022/06/27 10:15:02;;;;;;;41.05;6.22;;;;;;;33.19;32.42;99026.20;2196347;80;20940;-82
2022/06/27 10:18:03;;;;;;;7.87;2.90;;;;;;;33.34;31.33;99022.32;2195280;80;20968;-81
2022/06/27 10:21:03;;;;;;;4.58;3.10;;;;;;;33.44;32.06;99028.73;2195654;80;20957;-82
2022/06/27 10:24:05;;;;;;;4.15;2.98;;;;;;;33.31;31.06;99015.80;2195484;81;20995;-82
2022/06/27 10:27:06;;;;;;;6.37;2.92;;;;;;;32.96;32.07;99006.84;2195987;80;21638;-83
2022/06/27 10:30:12;;;;;;;3.20;2.90;;;;;;;32.96;32.07;99006.84;2195572;80;20967;-80
2022/06/27 10:33:13;;;;;;;9.25;2.50;;;;;;;33.03;32.04;99011.66;2195329;80;20973;-81
2022/06/27 10:36:14;;;;;;;3.40;2.35;;;;;;;33.17;31.59;99010.09;2195580;80;21004;-82
2022/06/27 10:39:13;;;;;;;3.58;3.00;;;;;;;33.36;31.17;99015.44;2196377;80;21412;-83
2022/06/27 10:42:13;;;;;;;3.50;2.70;;;;;;;33.38;30.74;99014.33;2196559;80;20993;-83
2022/06/27 10:45:14;;;;;;;4.85;2.40;;;;;;;33.34;30.78;99009.28;2196371;80;20988;-82
2022/06/27 10:48:14;;;;;;;5.00;2.70;;;;;;;33.32;31.48;99008.05;2196427;81;21368;-82
2022/06/27 10:51:15;;;;;;;3.52;2.87;;;;;;;33.60;31.03;98999.95;2196034;81;21080;-79
2022/06/27 10:54:16;;;;;;;6.15;3.67;;;;;;;33.79;30.35;99002.89;2196304;81;20944;-83
2022/06/27 10:57:16;;;;;;;8.05;3.20;;;;;;;33.97;30.02;99004.66;2196269;81;20960;-82
2022/06/27 11:00:16;;;;;;;3.17;2.87;;;;;;;34.07;29.64;98996.16;2195801;80;20956;-82
2022/06/27 11:03:16;;;;;;;10.88;3.85;;;;;;;34.18;29.53;98996.13;2196699;80;20956;-79
2022/06/27 11:06:17;;;;;;;5.25;3.02;;;;;;;34.36;29.38;98997.83;2196229;80;21357;-79
2022/06/27 11:09:18;;;;;;;6.70;3.12;;;;;;;34.47;28.82;98995.58;2201203;80;21336;-81
2022/06/27 11:12:18;;;;;;;3.60;2.92;;;;;;;34.45;28.46;98994.34;2209209;81;20960;-79
2022/06/27 11:15:18;;;;;;;6.65;3.08;;;;;;;34.53;28.70;98996.41;2208915;81;20993;-80
2022/06/27 11:18:18;;;;;;;22.67;4.20;;;;;;;34.62;28.62;98993.42;2209555;81;20920;-80
2022/06/27 11:21:19;;;;;;;16.10;3.58;;;;;;;34.57;27.57;98983.46;2209034;81;21039;-80
2022/06/27 11:24:19;;;;;;;8.03;3.17;;;;;;;34.59;28.09;98980.13;2208882;81;20983;-79
2022/06/27 11:27:20;;;;;;;3.33;2.50;;;;;;;34.71;28.15;98984.04;2208497;81;21556;-80
2022/06/27 11:33:42;;;;;;;235.80;22.40;;;;;;;34.61;27.88;98986.28;2209132;81;20963;-79
2022/06/27 11:36:42;;;;;;;5.17;3.08;;;;;;;34.72;28.48;98979.48;2208528;81;20936;-79
2022/06/27 11:39:42;;;;;;;5.75;2.90;;;;;;;34.90;27.71;98971.65;2209277;81;21535;-84
2022/06/27 11:42:45;;;;;;;6.05;2.80;;;;;;;35.04;27.61;98981.66;2209049;81;20999;-83
2022/06/27 11:45:49;;;;;;;4.62;2.55;;;;;;;35.17;27.63;98977.39;2208915;81;20948;-83
2022/06/27 11:48:49;;;;;;;12.53;3.35;;;;;;;35.14;27.34;98976.30;2209585;81;20952;-83
2022/06/27 11:51:52;;;;;;;5.35;3.20;;;;;;;35.20;26.87;98977.13;2209868;81;21016;-82
2022/06/27 11:54:53;;;;;;;9.73;2.95;;;;;;;35.31;26.52;98967.55;2209612;81;20964;-83
2022/06/27 11:57:56;;;;;;;3.17;2.87;;;;;;;35.30;26.53;98971.25;2208735;81;20999;-82
2022/06/27 12:00:56;;;;;;;4.78;2.77;;;;;;;35.36;26.12;98963.09;2208887;81;20933;-84
2022/06/27 12:03:57;;;;;;;4.20;2.55;;;;;;;35.29;25.87;98951.89;2209109;81;21034;-83
2022/06/27 12:07:07;;;;;;;20.88;4.22;;;;;;;35.38;26.67;98969.25;2207937;81;20925;-81
2022/06/27 12:10:06;;;;;;;4.80;2.60;;;;;;;35.30;26.47;98968.53;2207857;81;20956;-80
2022/06/27 12:13:07;;;;;;;3.62;2.90;;;;;;;35.18;26.10;98966.90;2207552;81;20944;-81
2022/06/27 12:16:07;;;;;;;3.92;2.55;;;;;;;35.01;26.66;98956.66;2207621;81;21324;-79
2022/06/27 12:19:08;;;;;;;6.15;3.08;;;;;;;34.93;26.30;98959.18;2207781;81;20940;-79
2022/06/27 12:22:08;;;;;;;3.80;2.60;;;;;;;34.79;26.16;98961.20;2207664;81;21023;-78
2022/06/27 12:25:08;;;;;;;3.50;2.92;;;;;;;34.76;26.44;98952.47;2208405;81;20979;-79
2022/06/27 12:28:09;;;;;;;2.90;2.58;;;;;;;34.96;26.78;98950.78;2207793;81;21288;-79
2022/06/27 12:31:09;;;;;;;5.28;2.90;;;;;;;35.18;26.21;98953.34;2207950;81;20904;-79
2022/06/27 12:34:10;;;;;;;7.17;3.20;;;;;;;35.27;25.97;98950.31;2208867;81;20968;-80
2022/06/27 12:37:10;;;;;;;9.43;7.05;;;;;;;35.37;26.58;98951.25;2208967;81;21397;-80
2022/06/27 12:40:11;;;;;;;3.02;2.80;;;;;;;35.51;26.21;98950.88;2207663;81;20952;-79
2022/06/27 12:43:11;;;;;;;2.75;2.55;;;;;;;35.54;26.10;98947.89;2207971;81;20975;-79
2022/06/27 12:46:11;;;;;;;4.92;2.75;;;;;;;35.52;25.66;98940.88;2207598;81;20972;-80
2022/06/27 12:49:12;;;;;;;7.42;3.00;;;;;;;35.37;25.61;98941.25;2207497;81;20982;-82
2022/06/27 12:52:12;;;;;;;9.00;2.67;;;;;;;35.26;25.87;98944.52;2207371;81;20968;-80
2022/06/27 12:55:13;;;;;;;16.00;3.37;;;;;;;35.38;25.97;98941.61;2207897;81;20924;-80
2022/06/27 12:58:13;;;;;;;4.50;2.60;;;;;;;35.41;26.26;98937.27;2208336;81;20940;-79
2022/06/27 13:01:13;;;;;;;2.87;2.67;;;;;;;35.52;25.84;98937.67;2208303;81;20980;-78
2022/06/27 13:04:14;;;;;;;5.53;2.72;;;;;;;35.31;25.70;98944.97;2208569;81;20932;-80
2022/06/27 13:07:14;;;;;;;8.83;2.98;;;;;;;35.25;25.73;98942.30;2208253;81;21012;-80
2022/06/27 13:10:14;;;;;;;7.28;3.08;;;;;;;35.41;25.99;98935.91;2208062;81;21335;-78
2022/06/27 13:13:15;;;;;;;4.80;2.45;;;;;;;35.51;25.72;98933.73;2207845;81;20897;-80
2022/06/27 13:16:15;;;;;;;2.40;2.20;;;;;;;35.29;25.58;98941.53;2208722;81;20929;-83
2022/06/27 13:19:16;;;;;;;6.33;2.83;;;;;;;35.04;26.02;98938.27;2208849;81;21304;-82
2022/06/27 13:22:16;;;;;;;3.98;2.92;;;;;;;34.94;26.23;98930.57;2208153;81;20999;-80
2022/06/27 13:25:18;;;;;;;4.42;2.62;;;;;;;35.03;26.14;98932.48;2208208;81;20939;-81
2022/06/27 13:28:17;;;;;;;3.55;2.65;;;;;;;35.19;26.64;98928.42;2208757;81;20972;-79
2022/06/27 13:31:17;;;;;;;12.33;3.35;;;;;;;35.43;26.16;98925.78;2208810;81;20976;-81
2022/06/27 13:34:18;;;;;;;2.80;2.58;;;;;;;35.47;25.67;98928.22;2207844;81;20940;-80
2022/06/27 13:37:18;;;;;;;2.80;2.60;;;;;;;35.54;25.78;98928.03;2208769;81;20956;-79
2022/06/27 13:40:19;;;;;;;2.75;2.55;;;;;;;35.49;25.93;98937.94;2208869;81;20959;-80
2022/06/27 13:43:19;;;;;;;5.15;2.83;;;;;;;35.54;25.42;98929.39;2209418;81;20984;-79
2022/06/27 13:46:20;;;;;;;4.78;2.87;;;;;;;35.62;25.14;98932.30;2208837;81;20976;-80
2022/06/27 13:49:20;;;;;;;3.90;3.42;;;;;;;35.53;25.28;98933.09;2208522;81;20913;-78
2022/06/27 13:52:20;;;;;;;2.83;2.58;;;;;;;35.60;25.49;98935.66;2209071;81;20968;-79
2022/06/27 13:55:24;;;;;;;3.50;2.67;;;;;;;35.70;25.16;98939.27;2209019;81;20972;-80
2022/06/27 13:58:24;;;;;;;5.28;2.62;;;;;;;35.69;25.08;98935.69;2209725;81;21281;-81
2022/06/27 14:01:25;;;;;;;4.85;2.50;;;;;;;35.83;24.65;98933.61;2210122;81;20968;-80
2022/06/27 14:04:25;;;;;;;8.65;2.90;;;;;;;35.96;24.71;98931.49;2209397;81;20972;-77
2022/06/27 14:07:39;;;;;;;4.55;2.22;;;;;;;36.05;24.75;98927.44;2209780;81;21432;-80
2022/06/27 14:10:56;;;;;;;3.35;2.58;;;;;;;36.09;24.58;98919.00;2209176;81;21019;-80
2022/06/27 14:13:56;;;;;;;3.12;2.30;;;;;;;36.05;24.55;98920.64;2209164;81;21383;-79
2022/06/27 14:16:57;;;;;;;4.12;2.90;;;;;;;36.04;24.99;98923.00;2209612;81;20952;-79